createdAt,value
2019-01-20T04:02:06.604Z,23.03
2019-01-20T04:04:54.745Z,18.77
2019-01-20T04:07:42.663Z,20.57
2019-01-20T04:10:30.554Z,23.37
2019-01-20T04:13:18.474Z,19.70
2019-01-20T04:16:06.370Z,21.33
2019-01-20T04:18:54.305Z,19.10
2019-01-20T04:21:42.202Z,20.00
2019-01-20T04:24:30.123Z,23.77
2019-01-20T04:27:18.019Z,17.23
2019-01-20T04:30:06.255Z,21.40
2019-01-20T04:32:54.142Z,20.57
2019-01-20T04:35:42.057Z,20.73
2019-01-20T04:38:29.949Z,21.90
2019-01-20T04:41:17.875Z,21.17
2019-01-20T04:44:05.763Z,19.57
2019-01-20T04:46:53.693Z,18.13
2019-01-20T04:49:41.578Z,19.77
2019-01-20T04:52:29.505Z,16.83
2019-01-20T04:55:17.401Z,20.07
2019-01-20T05:01:00.257Z,21.27
2019-01-20T05:03:39.387Z,19.80
2019-01-20T05:06:27.305Z,21.83
2019-01-20T05:09:15.193Z,17.67
2019-01-20T05:12:03.137Z,21.73
2019-01-20T05:14:51.026Z,20.47
2019-01-20T05:17:38.990Z,21.13
2019-01-20T05:20:26.919Z,20.47
2019-01-20T05:23:14.835Z,19.57
2019-01-20T05:26:02.726Z,21.60
2019-01-20T05:28:50.645Z,20.47
2019-01-20T05:31:38.837Z,21.17
2019-01-20T05:34:26.749Z,20.30
2019-01-20T05:37:14.642Z,20.30
2019-01-20T05:40:02.557Z,24.50
2019-01-20T05:42:50.451Z,20.63
2019-01-20T05:45:38.386Z,19.53
2019-01-20T05:48:26.278Z,16.43
2019-01-20T05:51:14.203Z,23.33
2019-01-20T05:54:02.090Z,16.60
2019-01-20T05:56:50.009Z,22.83
2019-01-20T05:59:37.901Z,18.00
2019-01-20T06:02:25.837Z,24.97
2019-01-20T06:05:04.977Z,21.13
2019-01-20T06:07:52.886Z,19.90
2019-01-20T06:10:40.801Z,18.50
2019-01-20T06:13:28.694Z,22.13
2019-01-20T06:16:16.610Z,23.40
2019-01-20T06:19:04.498Z,19.07
2019-01-20T06:21:52.413Z,21.13
2019-01-20T06:24:40.302Z,23.10
2019-01-20T06:27:28.230Z,20.83
2019-01-20T06:30:17.457Z,23.03
2019-01-20T06:33:05.438Z,17.50
2019-01-20T06:35:53.337Z,20.13
2019-01-20T06:38:41.253Z,19.27
2019-01-20T06:41:29.145Z,21.77
2019-01-20T06:44:17.074Z,17.87
2019-01-20T06:47:04.968Z,18.10
2019-01-20T06:49:52.898Z,15.90
2019-01-20T06:52:40.896Z,19.43
2019-01-20T06:55:28.790Z,18.87
2019-01-20T06:58:16.681Z,21.83
2019-01-20T07:01:04.606Z,19.63
2019-01-20T07:03:52.493Z,20.27
2019-01-20T07:06:31.517Z,19.33
2019-01-20T07:09:19.406Z,18.97
2019-01-20T07:11:48.111Z,19.53
2019-01-20T07:14:36.002Z,18.13
2019-01-20T07:17:23.926Z,21.07
2019-01-20T07:20:11.846Z,24.40
2019-01-20T07:22:59.766Z,17.23
2019-01-20T07:25:47.661Z,21.80
2019-01-20T07:28:35.657Z,20.17
2019-01-20T07:31:23.831Z,19.90
2019-01-20T07:34:11.753Z,22.03
2019-01-20T07:36:59.701Z,25.90
2019-01-20T07:39:47.877Z,19.80
2019-01-20T07:42:35.833Z,20.83
2019-01-20T07:45:24.072Z,19.57
2019-01-20T07:48:12.010Z,22.43
2019-01-20T07:50:59.936Z,17.93
2019-01-20T07:53:38.754Z,22.67
2019-01-20T07:56:26.925Z,23.43
2019-01-20T07:59:14.810Z,21.87
2019-01-20T08:02:02.721Z,20.53
2019-01-20T08:04:50.609Z,21.33
2019-01-20T08:07:38.524Z,26.37
2019-01-20T08:10:27.441Z,23.47
2019-01-20T08:13:15.618Z,24.70
2019-01-20T08:16:03.581Z,22.50
2019-01-20T08:18:51.498Z,20.77
2019-01-20T08:21:39.391Z,20.27
2019-01-20T08:24:27.317Z,20.90
2019-01-20T08:27:15.210Z,22.05
2019-01-20T08:30:03.130Z,21.93
2019-01-20T08:32:51.029Z,28.27
2019-01-20T08:38:33.221Z,24.43
2019-01-20T08:41:21.154Z,26.83
2019-01-20T08:44:09.950Z,27.47
2019-01-20T08:47:17.177Z,29.37
2019-01-20T08:50:07.737Z,29.93
2019-01-20T08:52:55.953Z,30.27
2019-01-20T08:55:36.338Z,30.57
2019-01-20T08:58:14.840Z,26.93
2019-01-20T09:01:02.762Z,29.70
2019-01-20T09:03:50.674Z,31.47
2019-01-20T09:06:38.722Z,35.20
2019-01-20T09:09:26.654Z,41.13
2019-01-20T09:12:14.538Z,38.63
2019-01-20T09:15:02.476Z,39.10
2019-01-20T09:17:50.625Z,41.23
2019-01-20T09:20:38.858Z,40.80
2019-01-20T09:26:55.205Z,45.83
2019-01-20T09:29:43.193Z,40.73
2019-01-20T09:32:31.121Z,44.10
2019-01-20T09:35:19.013Z,40.83
2019-01-20T09:38:06.942Z,40.50
2019-01-20T09:40:54.846Z,44.60
2019-01-20T09:43:47.139Z,42.33
2019-01-20T09:46:32.402Z,41.30
2019-01-20T09:49:20.376Z,43.77
2019-01-20T09:52:08.261Z,40.47
2019-01-20T09:54:56.186Z,42.13
2019-01-20T09:57:36.842Z,43.40
2019-01-20T10:00:16.133Z,40.03
2019-01-20T10:03:04.026Z,43.00
2019-01-20T10:05:51.937Z,42.60
2019-01-20T10:08:39.830Z,40.63
2019-01-20T10:11:27.745Z,42.10
2019-01-20T10:14:15.638Z,45.07
2019-01-20T10:17:03.659Z,41.87
2019-01-20T10:19:51.548Z,42.00
2019-01-20T10:22:39.461Z,42.50
2019-01-20T10:25:27.375Z,37.00
2019-01-20T10:28:16.825Z,43.07
2019-01-20T10:31:05.980Z,46.13
2019-01-20T10:33:54.350Z,47.77
2019-01-20T10:36:42.245Z,50.60
2019-01-20T10:39:30.161Z,45.67
2019-01-20T10:42:18.486Z,43.00
2019-01-20T10:45:06.798Z,45.50
2019-01-20T10:47:54.690Z,48.37
2019-01-20T10:50:42.685Z,49.37
2019-01-20T10:53:30.588Z,51.93
2019-01-20T10:56:18.489Z,45.57
2019-01-20T10:58:57.216Z,53.47
2019-01-20T11:01:45.144Z,48.27
2019-01-20T11:04:33.090Z,45.40
2019-01-20T11:07:21.014Z,42.87
2019-01-20T11:10:09.105Z,49.23
2019-01-20T11:12:57.030Z,47.73
2019-01-20T11:15:45.038Z,46.30
2019-01-20T11:18:32.956Z,54.97
2019-01-20T11:21:20.877Z,47.50
2019-01-20T11:24:08.886Z,51.80
2019-01-20T11:26:56.815Z,46.47
2019-01-20T11:29:44.734Z,47.97
2019-01-20T11:32:32.630Z,44.67
2019-01-20T11:35:20.553Z,49.20
2019-01-20T11:38:08.457Z,45.17
2019-01-20T11:40:56.374Z,43.40
2019-01-20T11:43:44.265Z,46.00
2019-01-20T11:46:32.177Z,49.13
2019-01-20T11:49:20.085Z,48.87
2019-01-20T11:52:08.008Z,48.77
2019-01-20T11:54:55.940Z,51.73
2019-01-20T12:00:29.843Z,43.60
2019-01-20T12:03:17.757Z,50.53
2019-01-20T12:06:05.641Z,48.70
2019-01-20T12:08:53.564Z,50.40
2019-01-20T12:11:41.794Z,49.53
2019-01-20T12:14:29.814Z,47.43
2019-01-20T12:17:17.702Z,48.97
2019-01-20T12:20:05.850Z,50.70
2019-01-20T12:22:53.743Z,55.37
2019-01-20T12:25:41.691Z,52.33
2019-01-20T12:28:29.582Z,47.40
2019-01-20T12:31:17.557Z,51.70
2019-01-20T12:34:05.451Z,47.13
2019-01-20T12:36:53.381Z,44.70
2019-01-20T12:39:41.340Z,50.27
2019-01-20T12:42:29.267Z,45.60
2019-01-20T12:45:17.161Z,52.10
2019-01-20T12:48:05.220Z,48.23
2019-01-20T12:50:53.113Z,55.87
2019-01-20T12:53:41.041Z,52.90
2019-01-20T12:59:36.043Z,49.73
2019-01-20T13:02:17.189Z,49.97
2019-01-20T13:05:05.172Z,48.93
2019-01-20T13:07:53.213Z,47.40
2019-01-20T13:10:41.138Z,55.17
2019-01-20T13:13:29.050Z,55.87
2019-01-20T13:16:16.974Z,51.10
2019-01-20T13:19:04.877Z,54.27
2019-01-20T13:21:52.791Z,49.53
2019-01-20T13:24:40.973Z,51.50
2019-01-20T13:27:28.925Z,49.20
2019-01-20T13:30:17.706Z,52.40
2019-01-20T13:33:05.649Z,51.63
2019-01-20T13:35:53.554Z,50.90
2019-01-20T13:38:41.473Z,50.27
2019-01-20T13:41:30.270Z,45.80
2019-01-20T13:44:18.195Z,48.70
2019-01-20T13:47:06.102Z,45.33
2019-01-20T13:49:54.045Z,52.63
2019-01-20T13:52:41.937Z,54.77
2019-01-20T13:55:29.862Z,50.53
2019-01-20T13:58:17.749Z,53.13
2019-01-20T14:01:05.675Z,50.23
2019-01-20T14:03:44.357Z,49.63
2019-01-20T14:06:32.273Z,54.57
2019-01-20T14:09:20.176Z,54.90
2019-01-20T14:12:08.109Z,55.43
2019-01-20T14:14:56.011Z,51.77
2019-01-20T14:17:43.961Z,59.60
2019-01-20T14:20:31.853Z,56.17
2019-01-20T14:23:19.784Z,56.50
2019-01-20T14:26:07.673Z,50.73
2019-01-20T14:28:55.593Z,56.67
2019-01-20T14:31:43.489Z,57.00
2019-01-20T14:34:31.410Z,58.37
2019-01-20T14:37:19.306Z,58.30
2019-01-20T14:40:08.042Z,56.43
2019-01-20T14:42:55.941Z,53.13
2019-01-20T14:45:43.861Z,55.33
2019-01-20T14:48:32.217Z,53.20
2019-01-20T14:51:21.426Z,53.80
2019-01-20T14:54:09.318Z,50.77
2019-01-20T14:56:57.593Z,59.03
2019-01-20T14:59:45.494Z,60.70
2019-01-20T15:02:33.410Z,57.97
2019-01-20T15:05:13.828Z,54.83
2019-01-20T15:07:52.459Z,53.60
2019-01-20T15:10:40.413Z,60.57
2019-01-20T15:13:28.341Z,57.23
2019-01-20T15:16:16.294Z,56.27
2019-01-20T15:19:04.209Z,57.67
2019-01-20T15:21:52.105Z,61.20
2019-01-20T15:27:33.601Z,54.30
2019-01-20T15:33:36.864Z,58.37
2019-01-20T15:36:24.798Z,53.93
2019-01-20T15:39:12.724Z,59.90
2019-01-20T15:42:00.622Z,51.03
2019-01-20T15:44:48.560Z,58.00
2019-01-20T15:47:36.446Z,55.47
2019-01-20T15:50:25.565Z,56.60
2019-01-20T15:53:13.502Z,54.80
2019-01-20T15:56:01.505Z,53.53
2019-01-20T15:58:49.597Z,55.17
2019-01-20T16:01:37.587Z,58.50
2019-01-20T16:04:25.796Z,56.67
2019-01-20T16:07:06.402Z,56.93
2019-01-20T16:09:45.346Z,54.37
2019-01-20T16:12:33.274Z,62.40
2019-01-20T16:15:24.589Z,58.57
2019-01-20T16:18:14.375Z,60.57
2019-01-20T16:21:01.423Z,54.77
2019-01-20T16:23:49.329Z,54.10
2019-01-20T16:26:37.221Z,57.77
2019-01-20T16:29:25.178Z,58.10
2019-01-20T16:32:13.074Z,55.50
2019-01-20T16:35:00.999Z,58.37
2019-01-20T16:37:48.923Z,57.93
2019-01-20T16:40:36.836Z,57.50
2019-01-20T16:43:24.725Z,57.53
2019-01-20T16:46:12.637Z,58.80
2019-01-20T16:49:00.529Z,57.37
2019-01-20T16:51:48.449Z,58.93
2019-01-20T16:54:36.342Z,53.97
2019-01-20T16:57:24.268Z,56.93
2019-01-20T17:00:13.787Z,59.70
2019-01-20T17:03:01.709Z,54.23
2019-01-20T17:05:49.856Z,53.97
2019-01-20T17:08:37.805Z,56.33
2019-01-20T17:11:25.693Z,47.70
2019-01-20T17:14:13.605Z,48.63
2019-01-20T17:17:01.530Z,51.60
2019-01-20T17:19:49.454Z,56.93
2019-01-20T17:22:18.396Z,53.43
2019-01-20T17:25:06.785Z,53.93
2019-01-20T17:27:54.681Z,50.97
2019-01-20T17:30:42.607Z,50.50
2019-01-20T17:33:30.506Z,47.10
2019-01-20T17:36:18.426Z,48.57
2019-01-20T17:39:11.901Z,45.73
2019-01-20T17:44:51.614Z,51.33
2019-01-20T17:47:39.537Z,48.47
2019-01-20T17:50:28.557Z,56.70
2019-01-20T17:53:16.475Z,50.70
2019-01-20T17:56:04.375Z,50.93
2019-01-20T17:58:52.310Z,49.57
2019-01-20T18:01:40.208Z,48.50
2019-01-20T18:04:28.157Z,47.07
2019-01-20T18:07:16.050Z,54.80
2019-01-20T18:09:56.634Z,55.00
2019-01-20T18:12:35.060Z,56.43
2019-01-20T18:15:22.998Z,52.40
2019-01-20T18:18:10.898Z,54.10
2019-01-20T18:20:58.806Z,62.80
2019-01-20T18:23:46.694Z,61.07
2019-01-20T18:26:34.609Z,61.23
2019-01-20T18:29:22.503Z,55.70
2019-01-20T18:32:10.430Z,57.77
2019-01-20T18:34:58.322Z,47.17
2019-01-20T18:37:46.256Z,53.60
2019-01-20T18:40:34.517Z,51.07
2019-01-20T18:43:22.454Z,50.57
2019-01-20T18:45:51.125Z,51.30
2019-01-20T18:48:39.050Z,51.07
2019-01-20T18:51:26.946Z,51.53
2019-01-20T18:54:14.862Z,50.73
2019-01-20T18:57:02.758Z,53.30
2019-01-20T18:59:50.673Z,51.77
2019-01-20T19:02:38.571Z,55.60
2019-01-20T19:05:26.498Z,50.77
2019-01-20T19:08:14.381Z,53.93
2019-01-20T19:11:02.417Z,56.40
2019-01-20T19:13:50.297Z,56.23
2019-01-20T19:16:38.213Z,55.63
2019-01-20T19:19:26.114Z,52.43
2019-01-20T19:22:14.968Z,50.27
2019-01-20T19:25:03.708Z,55.10
2019-01-20T19:27:51.879Z,52.17
2019-01-20T19:30:39.765Z,58.30
2019-01-20T19:33:27.679Z,50.67
2019-01-20T19:36:15.569Z,55.63
2019-01-20T19:42:17.894Z,55.00
2019-01-20T19:45:06.390Z,53.43
2019-01-20T19:47:54.313Z,52.00
2019-01-20T19:53:49.241Z,51.97
2019-01-20T19:56:37.142Z,52.90
2019-01-20T19:59:25.077Z,54.57
2019-01-20T20:02:12.969Z,52.63
2019-01-20T20:05:01.166Z,55.00
2019-01-20T20:07:49.322Z,49.33
2019-01-20T20:10:37.242Z,55.23
2019-01-20T20:13:15.818Z,54.17
2019-01-20T20:16:04.025Z,54.17
2019-01-20T20:18:51.904Z,55.60
2019-01-20T20:21:39.830Z,54.83
2019-01-20T20:24:27.722Z,51.77
2019-01-20T20:27:15.639Z,52.43
2019-01-20T20:30:04.061Z,51.07
2019-01-20T20:32:51.977Z,61.93
2019-01-20T20:35:40.169Z,56.97
2019-01-20T20:38:28.085Z,63.07
2019-01-20T20:41:15.978Z,57.53
2019-01-20T20:44:03.919Z,75.20
2019-01-20T20:46:51.827Z,72.63
2019-01-20T20:49:40.002Z,52.33
2019-01-20T20:52:27.871Z,52.83
2019-01-20T20:54:56.531Z,57.43
2019-01-20T20:57:44.446Z,56.53
2019-01-20T21:00:36.528Z,55.20
2019-01-20T21:03:43.729Z,55.30
2019-01-20T21:06:31.686Z,60.60
2019-01-20T21:09:19.653Z,59.23
2019-01-20T21:12:07.570Z,60.40
2019-01-20T21:14:46.407Z,50.83
2019-01-20T21:17:34.597Z,55.63
2019-01-20T21:20:22.515Z,57.10
2019-01-20T21:23:12.277Z,56.33
2019-01-20T21:26:00.145Z,57.60
2019-01-20T21:31:41.582Z,60.87
2019-01-20T21:34:29.502Z,54.90
2019-01-20T21:37:17.611Z,54.00
2019-01-20T21:40:05.633Z,58.43
2019-01-20T21:42:53.675Z,59.80
2019-01-20T21:45:41.590Z,54.50
2019-01-20T21:48:29.486Z,61.63
2019-01-20T21:51:17.401Z,64.77
2019-01-20T21:57:12.374Z,59.03
2019-01-20T22:00:00.262Z,58.50
2019-01-20T22:02:48.269Z,75.43
2019-01-20T22:05:36.153Z,56.83
2019-01-20T22:08:24.079Z,60.37
2019-01-20T22:11:11.969Z,62.50
2019-01-20T22:13:59.908Z,53.50
2019-01-20T22:16:40.514Z,66.23
2019-01-20T22:19:21.134Z,64.10
2019-01-20T22:21:59.621Z,68.67
2019-01-20T22:24:47.540Z,62.63
2019-01-20T22:27:35.435Z,67.20
2019-01-20T22:30:24.430Z,72.87
2019-01-20T22:33:12.323Z,68.13
2019-01-20T22:36:00.241Z,65.03
2019-01-20T22:38:48.127Z,70.43
2019-01-20T22:41:36.043Z,70.57
2019-01-20T22:44:23.938Z,77.57
2019-01-20T22:47:11.857Z,66.40
2019-01-20T22:49:59.746Z,58.40
2019-01-20T22:52:47.663Z,68.93
2019-01-20T22:55:35.562Z,65.60
2019-01-20T22:58:23.474Z,74.33
